Avery, Texas
Current Conditions -  °F | °C
As of 9:55 PM on Sunday 23 Nov 2014 (Local Time) from K4O4 Reporting Station
Scattered Clouds Scattered Clouds  
Wind Chill: 54°   Ceiling: Unl
Heat Index: 54°   Visibility: 10mi
Dew Point: 43°   Wind: 16mph
Humidity: 67%   Direction: 290°WNW
Pressure: 29.59"   Gusts: 25mph
Location:  33.55°N, 94.78°W
Report Text: K4O4 240355Z AUTO 29014G22KT 10SM SCT026 12/06 A2959 RMK AO2
Loading
Personal Weather Stations






























Interactive Weather Map New forecast layout! Learn more

10-Day Weather Forecast

Advertisements
Track Severe Weather on mobile